map of ONP home
ONP - Airport
Location
City:  Newport, Oregon, United States
Name:Newport Municipal Airport
ICAO:KONP
IATA:ONP
FAA LID:ONP

Details
Type:Airport (Part 139 Class IV)
Use:Public/Civil
Latitude:4434'49"N (44.580361)
Longitude:12403'28"W (-124.057916)
Datum:WGS 1984
Elevation:160 ft (49 m)
Variation:15.33E (WMM2015 magnetic declination)
-0.13 annual change
Runways:2
Longest:5398 × 100 ft (1645 × 30.5 m), paved

Time
Time Zone:UTC-8 (DST-7)
Local Time:

Weather
METAR:KONP 191615Z AUTO 33007KT 7SM CLR 16/11 A3024 RMK AO2
TAF:KONP 191331Z 1914/2012 36003KT P6SM SCT007
FM192100 35018G25KT P6SM SKC
FM200600 01003KT P6SM SCT004 OVC012
FM200900 VRB03KT 2SM BR OVC004

Related Locations
Nearby:
Farthest:FTU: 10993 mi / 17691 km
Tolagnaro [Maurillac Airport (Fort Dauphin Airport)], MG

Find:

   beyond  
but within

Other Information
Maps:
NOTAMs:
Links:
Sources:

  
flag of United States
flag of Oregon
  

Sectional Chart

Flight Planning
at skyvector.com

Satellite Image

Google Maps Satellite view

 

Copyright © 2004-2017 Karl L. Swartz. All rights reserved.
The Great Circle Mapper name and logo are trademarks of the Great Circle Mapper.
All other trademarks mentioned herein belong to their respective owners.
Please see credits for attibutions and further copyright information.

  Follow gcmap on Facebook Follow gcmap on Twitter Follow gcmap on Google+ GCmap on LinkedIn

hCard Microformat

Geo Microformat